Time;durP1;ratioP1;P1;durP2;ratioP2;P2;SDS_P1;SDS_P2;PMS_P1;PMS_P2;Temp;Humidity;BMP_temperature;BMP_pressure;BME280_temperature;BME280_humidity;BME280_pressure;Samples;Min_cycle;Max_cycle;Signal;HPM_P1;HPM_P2
2021/10/07 00:01:09;;;;;;;10.32;7.60;;;14.20;99.90;;;;;;4153793;28;20057;-75
2021/10/07 00:03:10;;;;;;;12.02;8.77;;;14.20;99.90;;;;;;4153115;28;20120;-76
2021/10/07 00:05:11;;;;;;;10.23;7.75;;;14.20;99.90;;;;;;4153889;28;20136;-76
2021/10/07 00:07:11;;;;;;;13.30;8.60;;;14.20;99.90;;;;;;4151650;28;20045;-76
2021/10/07 00:09:12;;;;;;;11.27;8.60;;;14.20;99.90;;;;;;4151171;28;20267;-75
2021/10/07 00:11:14;;;;;;;13.43;8.98;;;14.20;99.90;;;;;;4152657;28;20481;-75
2021/10/07 00:13:15;;;;;;;15.20;10.13;;;14.20;99.90;;;;;;4152741;28;20038;-76
2021/10/07 00:15:16;;;;;;;15.40;10.25;;;14.20;99.90;;;;;;4151977;28;20091;-76
2021/10/07 00:17:16;;;;;;;14.48;10.45;;;14.20;99.90;;;;;;4150488;28;20433;-76
2021/10/07 00:19:17;;;;;;;15.23;9.73;;;14.20;99.90;;;;;;4149968;28;20464;-76
2021/10/07 00:21:18;;;;;;;18.75;10.52;;;14.20;99.90;;;;;;4163393;28;20462;-75
2021/10/07 00:23:24;;;;;;;16.23;9.93;;;14.20;99.90;;;;;;4174666;28;20457;-76
2021/10/07 00:25:25;;;;;;;14.95;9.10;;;14.20;99.90;;;;;;4178169;28;20039;-75
2021/10/07 00:27:25;;;;;;;13.80;10.32;;;14.20;99.90;;;;;;4171822;28;20072;-76
2021/10/07 00:29:40;;;;;;;14.05;10.35;;;14.20;99.90;;;;;;4176040;28;20046;-76
2021/10/07 00:31:43;;;;;;;15.15;10.70;;;14.20;99.90;;;;;;4169047;28;20033;-75
2021/10/07 00:34:13;;;;;;;16.40;10.45;;;14.20;99.90;;;;;;4174697;28;20040;-76
2021/10/07 00:40:43;;;;;;;15.32;11.38;;;14.10;99.90;;;;;;4168928;28;20053;-76
2021/10/07 00:42:43;;;;;;;18.67;12.40;;;14.20;99.90;;;;;;4152938;28;20048;-76
2021/10/07 00:44:45;;;;;;;14.90;10.73;;;14.10;99.90;;;;;;4171764;28;20056;-76
2021/10/07 00:46:54;;;;;;;19.08;12.27;;;14.20;99.90;;;;;;4171902;28;20048;-76
2021/10/07 00:48:54;;;;;;;14.15;11.65;;;14.20;99.90;;;;;;4172939;28;20094;-76
2021/10/07 00:50:55;;;;;;;17.50;12.32;;;14.20;99.90;;;;;;4172618;28;20063;-75
2021/10/07 00:52:56;;;;;;;20.35;12.93;;;14.20;99.90;;;;;;4171561;28;20033;-76
2021/10/07 00:54:57;;;;;;;20.50;12.23;;;14.20;99.90;;;;;;4168349;28;20075;-76
2021/10/07 00:57:00;;;;;;;23.40;13.48;;;14.20;99.90;;;;;;4171930;28;20041;-75
2021/10/07 00:59:02;;;;;;;21.17;14.43;;;14.20;99.90;;;;;;4169561;28;20048;-76
2021/10/07 01:01:03;;;;;;;21.50;12.93;;;14.20;99.90;;;;;;4172370;28;20037;-76
2021/10/07 01:03:03;;;;;;;19.80;14.35;;;14.10;99.90;;;;;;4174390;28;20051;-76
2021/10/07 01:05:05;;;;;;;21.48;13.73;;;14.20;99.90;;;;;;4171519;28;20049;-76
2021/10/07 01:07:07;;;;;;;20.83;14.73;;;14.10;99.90;;;;;;4171836;28;20770;-76
2021/10/07 01:09:07;;;;;;;17.20;12.90;;;14.10;99.90;;;;;;4173574;28;20037;-76
2021/10/07 01:11:08;;;;;;;23.33;14.48;;;14.10;99.90;;;;;;4173831;28;20055;-76
2021/10/07 01:13:12;;;;;;;18.02;13.20;;;14.10;99.90;;;;;;4175293;28;20036;-76
2021/10/07 01:15:13;;;;;;;22.20;13.68;;;14.10;99.90;;;;;;4178631;28;20100;-76
2021/10/07 01:17:22;;;;;;;21.45;15.20;;;14.10;99.90;;;;;;4171405;28;20072;-76
2021/10/07 01:19:26;;;;;;;19.85;12.68;;;14.20;99.90;;;;;;4165526;28;20056;-76
2021/10/07 01:21:26;;;;;;;20.58;14.68;;;14.20;99.90;;;;;;4170676;28;20521;-76
2021/10/07 01:23:27;;;;;;;25.10;14.95;;;14.20;99.90;;;;;;4170275;28;20037;-76
2021/10/07 01:25:32;;;;;;;19.95;14.25;;;14.20;99.90;;;;;;4171495;28;20049;-76
2021/10/07 01:27:34;;;;;;;21.23;14.63;;;14.20;99.90;;;;;;4155770;28;20083;-75
2021/10/07 01:29:36;;;;;;;19.23;14.55;;;14.10;99.90;;;;;;4155602;28;20087;-76
2021/10/07 01:31:36;;;;;;;25.98;15.50;;;14.10;99.90;;;;;;4154800;28;20985;-76
2021/10/07 01:33:38;;;;;;;20.05;14.45;;;14.10;99.90;;;;;;4135658;28;20038;-76
2021/10/07 01:35:38;;;;;;;23.25;14.40;;;14.10;99.90;;;;;;4152997;28;20041;-75
2021/10/07 01:37:39;;;;;;;27.40;16.17;;;14.10;99.90;;;;;;4153022;28;20120;-76
2021/10/07 01:39:39;;;;;;;21.20;13.68;;;14.00;99.90;;;;;;4153747;28;20037;-76
2021/10/07 01:41:40;;;;;;;26.02;15.68;;;14.10;99.90;;;;;;4152877;28;20045;-76
2021/10/07 01:43:40;;;;;;;21.00;14.98;;;14.10;99.90;;;;;;4152893;28;20021;-76
2021/10/07 01:45:41;;;;;;;18.77;13.45;;;14.10;99.90;;;;;;4153874;28;20459;-76
2021/10/07 01:47:41;;;;;;;18.50;13.68;;;14.10;99.90;;;;;;4152950;28;20041;-75
2021/10/07 01:49:42;;;;;;;20.33;14.70;;;14.10;99.90;;;;;;4156698;28;20041;-76
2021/10/07 01:51:43;;;;;;;19.35;13.65;;;14.10;99.90;;;;;;4150388;28;20693;-75
2021/10/07 01:53:44;;;;;;;23.73;16.52;;;14.20;99.90;;;;;;4149604;28;20037;-76
2021/10/07 01:55:44;;;;;;;27.92;17.00;;;14.20;99.90;;;;;;4154618;28;20038;-76
2021/10/07 01:57:45;;;;;;;18.55;13.73;;;14.20;99.90;;;;;;4156179;28;20075;-76
2021/10/07 01:59:45;;;;;;;20.63;14.57;;;14.20;99.90;;;;;;4154432;28;20477;-75
2021/10/07 02:01:46;;;;;;;20.77;14.73;;;14.10;99.90;;;;;;4152605;28;20674;-76
2021/10/07 02:03:47;;;;;;;23.63;16.05;;;14.20;99.90;;;;;;4155800;28;20049;-76
2021/10/07 02:05:47;;;;;;;29.35;18.17;;;14.20;99.90;;;;;;4154571;28;20026;-76
2021/10/07 02:07:48;;;;;;;26.23;16.92;;;14.10;99.90;;;;;;4150860;28;20034;-75
2021/10/07 02:09:48;;;;;;;23.00;15.95;;;14.10;99.90;;;;;;4152676;28;20017;-75
2021/10/07 02:11:49;;;;;;;26.52;15.90;;;14.10;99.90;;;;;;4154261;28;20069;-76
2021/10/07 02:13:50;;;;;;;22.27;14.48;;;14.10;99.90;;;;;;4153241;28;20018;-76
2021/10/07 02:15:51;;;;;;;21.67;15.65;;;14.10;99.90;;;;;;4155233;28;20386;-76
2021/10/07 02:17:52;;;;;;;22.55;15.15;;;14.10;99.90;;;;;;4154670;28;20026;-76
2021/10/07 02:19:52;;;;;;;19.30;14.50;;;14.10;99.90;;;;;;4136312;28;20720;-76
2021/10/07 02:21:53;;;;;;;19.95;14.73;;;14.10;99.90;;;;;;4155992;28;20034;-75
2021/10/07 02:23:54;;;;;;;18.38;13.25;;;14.10;99.90;;;;;;4155106;28;20072;-76
2021/10/07 02:25:54;;;;;;;22.80;15.05;;;14.10;99.90;;;;;;4154637;28;20547;-76
2021/10/07 02:27:55;;;;;;;21.40;14.68;;;14.20;99.90;;;;;;4155444;28;20040;-75
2021/10/07 02:29:55;;;;;;;19.08;13.80;;;14.10;99.90;;;;;;4155857;28;20021;-75
2021/10/07 02:31:56;;;;;;;22.67;15.70;;;14.20;99.90;;;;;;4153313;28;20029;-76
2021/10/07 02:33:57;;;;;;;25.65;16.75;;;14.20;99.90;;;;;;4152981;28;20079;-75
2021/10/07 02:35:58;;;;;;;23.13;15.68;;;14.20;99.90;;;;;;4152360;28;20022;-75
2021/10/07 02:37:58;;;;;;;24.80;16.17;;;14.10;99.90;;;;;;4151424;28;20038;-75
2021/10/07 02:40:00;;;;;;;21.95;15.75;;;14.20;99.90;;;;;;4135963;28;20109;-75
2021/10/07 02:42:00;;;;;;;24.00;15.23;;;14.20;99.90;;;;;;4152025;28;20116;-76
2021/10/07 02:44:01;;;;;;;20.42;14.05;;;14.20;99.90;;;;;;4150094;28;20048;-76
2021/10/07 02:46:01;;;;;;;21.15;14.02;;;14.20;99.90;;;;;;4151534;28;20414;-75
2021/10/07 02:48:02;;;;;;;23.23;14.13;;;14.20;99.90;;;;;;4153005;28;20501;-75
2021/10/07 02:50:05;;;;;;;22.85;14.90;;;14.20;99.90;;;;;;4155533;28;20037;-76
2021/10/07 02:52:06;;;;;;;21.50;15.05;;;14.20;99.90;;;;;;4154189;28;20674;-76
2021/10/07 02:54:06;;;;;;;29.27;16.67;;;14.20;99.90;;;;;;4152882;28;20026;-75
2021/10/07 02:56:07;;;;;;;28.38;16.75;;;14.20;99.90;;;;;;4155603;28;20033;-76
2021/10/07 02:58:08;;;;;;;29.63;17.95;;;14.20;99.90;;;;;;4151121;28;20047;-76
2021/10/07 03:00:10;;;;;;;23.60;15.20;;;14.20;99.90;;;;;;4153620;28;20776;-76
2021/10/07 03:02:11;;;;;;;22.30;15.38;;;14.20;99.90;;;;;;4154659;28;20087;-76
2021/10/07 03:04:13;;;;;;;28.73;16.58;;;14.20;99.90;;;;;;4152557;28;20128;-75
2021/10/07 03:06:13;;;;;;;25.05;16.27;;;14.20;99.90;;;;;;4153631;28;20473;-76
2021/10/07 03:08:14;;;;;;;23.90;15.55;;;14.20;99.90;;;;;;4151712;28;20627;-75
2021/10/07 03:10:15;;;;;;;27.90;17.13;;;14.20;99.90;;;;;;4150659;28;20513;-76
2021/10/07 03:12:16;;;;;;;22.17;14.70;;;14.20;99.90;;;;;;4155287;28;20445;-76
2021/10/07 03:14:16;;;;;;;24.10;15.75;;;14.20;99.90;;;;;;4156068;28;20049;-76
2021/10/07 03:16:17;;;;;;;21.63;15.05;;;14.20;99.90;;;;;;4153969;28;20057;-75
2021/10/07 03:18:17;;;;;;;23.77;16.02;;;14.20;99.90;;;;;;4152566;28;20101;-76
2021/10/07 03:20:18;;;;;;;25.77;16.33;;;14.20;99.90;;;;;;4152128;28;20121;-75
2021/10/07 03:22:21;;;;;;;23.80;15.73;;;14.20;99.90;;;;;;4151552;28;20026;-76
2021/10/07 03:24:21;;;;;;;25.70;15.98;;;14.20;99.90;;;;;;4153705;28;20037;-76
2021/10/07 03:26:22;;;;;;;25.08;15.57;;;14.20;99.90;;;;;;4150825;28;20036;-75
2021/10/07 03:28:23;;;;;;;24.40;14.85;;;14.20;99.90;;;;;;4147260;28;20037;-75
2021/10/07 03:30:23;;;;;;;22.33;14.68;;;14.20;99.90;;;;;;4151902;28;20454;-75
2021/10/07 03:32:24;;;;;;;19.50;14.75;;;14.30;99.90;;;;;;4152763;28;20033;-75
2021/10/07 03:34:25;;;;;;;21.63;14.63;;;14.30;99.90;;;;;;4152481;28;20060;-76
2021/10/07 03:36:25;;;;;;;21.55;15.35;;;14.30;99.90;;;;;;4154002;28;20110;-75
2021/10/07 03:38:29;;;;;;;27.20;18.38;;;14.30;99.90;;;;;;4153223;28;20038;-75
2021/10/07 03:40:30;;;;;;;22.98;16.48;;;14.20;99.90;;;;;;4151358;28;20371;-75
2021/10/07 03:42:31;;;;;;;20.90;16.38;;;14.20;99.90;;;;;;4152790;28;20048;-76
2021/10/07 03:44:31;;;;;;;24.27;16.75;;;14.20;99.90;;;;;;4153919;28;20045;-76
2021/10/07 03:46:32;;;;;;;26.08;16.48;;;14.20;99.90;;;;;;4149563;28;20037;-76
2021/10/07 03:48:33;;;;;;;22.75;16.67;;;14.20;99.90;;;;;;4151474;28;20037;-76
2021/10/07 03:50:34;;;;;;;21.30;14.57;;;14.20;99.90;;;;;;4153956;28;20385;-76
2021/10/07 03:52:34;;;;;;;19.10;14.15;;;14.20;99.90;;;;;;4152488;28;20393;-75
2021/10/07 03:54:35;;;;;;;23.85;15.27;;;14.20;99.90;;;;;;4152000;28;20033;-75
2021/10/07 03:56:38;;;;;;;23.77;14.55;;;14.30;99.90;;;;;;4152275;28;20505;-75
2021/10/07 03:58:38;;;;;;;20.88;15.65;;;14.20;99.90;;;;;;4152412;28;20156;-76
2021/10/07 04:00:39;;;;;;;22.60;15.52;;;14.30;99.90;;;;;;4153583;28;20045;-75
2021/10/07 04:02:40;;;;;;;22.25;15.02;;;14.30;99.90;;;;;;4134444;28;20041;-76
2021/10/07 04:04:40;;;;;;;24.27;16.83;;;14.30;99.90;;;;;;4152146;28;20033;-76
2021/10/07 04:06:41;;;;;;;27.48;16.25;;;14.30;99.90;;;;;;4153479;28;20113;-76
2021/10/07 04:08:41;;;;;;;25.50;16.88;;;14.30;99.90;;;;;;4162407;28;20028;-76
2021/10/07 04:10:42;;;;;;;25.70;17.77;;;14.40;99.90;;;;;;4152763;28;20047;-75
2021/10/07 04:12:43;;;;;;;28.13;17.40;;;14.30;99.90;;;;;;4153763;28;20034;-75
2021/10/07 04:14:44;;;;;;;27.85;17.40;;;14.30;99.90;;;;;;4151692;28;20044;-76
2021/10/07 04:16:44;;;;;;;28.80;17.88;;;14.30;99.90;;;;;;4152972;28;20053;-76
2021/10/07 04:18:45;;;;;;;25.60;17.02;;;14.30;99.90;;;;;;4152525;28;20061;-75
2021/10/07 04:20:47;;;;;;;27.58;18.35;;;14.40;99.90;;;;;;4156396;28;20044;-75
2021/10/07 04:22:47;;;;;;;27.83;18.05;;;14.40;99.90;;;;;;4157213;28;20033;-75
2021/10/07 04:24:48;;;;;;;27.63;18.45;;;14.30;99.90;;;;;;4155596;28;20683;-75
2021/10/07 04:26:49;;;;;;;27.30;17.10;;;14.40;99.90;;;;;;4155242;28;20083;-76
2021/10/07 04:28:49;;;;;;;27.70;17.08;;;14.40;99.90;;;;;;4157355;28;20116;-76
2021/10/07 04:30:50;;;;;;;23.70;15.75;;;14.40;99.90;;;;;;4155644;28;20473;-76
2021/10/07 04:32:51;;;;;;;24.92;16.45;;;14.40;99.90;;;;;;4156383;28;20030;-76
2021/10/07 04:34:52;;;;;;;23.63;15.90;;;14.40;99.90;;;;;;4155890;28;20394;-76
2021/10/07 04:36:52;;;;;;;24.73;16.25;;;14.40;99.90;;;;;;4155382;28;20045;-75
2021/10/07 04:38:53;;;;;;;23.83;15.45;;;14.40;99.90;;;;;;4157883;28;20029;-76
2021/10/07 04:40:53;;;;;;;27.08;16.98;;;14.40;99.90;;;;;;4152848;28;20049;-76
2021/10/07 04:42:55;;;;;;;27.02;16.50;;;14.40;99.90;;;;;;4151148;28;20040;-75
2021/10/07 04:44:55;;;;;;;28.48;16.83;;;14.40;99.90;;;;;;4147893;28;20083;-75
2021/10/07 04:46:56;;;;;;;20.35;14.27;;;14.40;99.90;;;;;;4150575;28;20034;-75
2021/10/07 04:48:57;;;;;;;23.50;15.18;;;14.30;99.90;;;;;;4152870;28;20037;-75
2021/10/07 04:50:58;;;;;;;24.73;16.13;;;14.40;99.90;;;;;;4151855;28;20055;-75
2021/10/07 04:52:59;;;;;;;21.00;14.98;;;14.40;99.90;;;;;;4151212;28;20592;-76
2021/10/07 04:55:00;;;;;;;20.98;14.45;;;14.30;99.90;;;;;;4145838;28;20034;-75
2021/10/07 04:57:00;;;;;;;25.30;14.88;;;14.30;99.90;;;;;;4152559;28;20029;-76
2021/10/07 04:59:01;;;;;;;22.85;14.60;;;14.40;99.90;;;;;;4150946;28;21965;-74
2021/10/07 05:01:02;;;;;;;22.75;14.15;;;14.30;99.90;;;;;;4151315;28;20041;-74
2021/10/07 05:03:02;;;;;;;23.45;15.35;;;14.30;99.90;;;;;;4152020;28;20465;-74
2021/10/07 05:05:08;;;;;;;21.00;14.52;;;14.30;99.90;;;;;;4153438;28;20042;-74
2021/10/07 05:07:09;;;;;;;21.17;14.63;;;14.30;99.90;;;;;;4152299;28;20056;-74
2021/10/07 05:09:09;;;;;;;22.10;13.20;;;14.30;99.90;;;;;;4151390;28;20112;-74
2021/10/07 05:11:10;;;;;;;22.42;14.32;;;14.30;99.90;;;;;;4151994;28;20052;-73
2021/10/07 05:13:11;;;;;;;19.42;13.80;;;14.30;99.90;;;;;;4153242;28;20098;-74
2021/10/07 05:15:11;;;;;;;19.92;13.65;;;14.30;99.90;;;;;;4151985;28;20045;-74
2021/10/07 05:17:12;;;;;;;23.55;13.75;;;14.30;99.90;;;;;;4152167;28;20682;-74
2021/10/07 05:19:13;;;;;;;19.70;13.35;;;14.30;99.90;;;;;;4151206;28;20524;-73
2021/10/07 05:21:14;;;;;;;20.80;12.98;;;14.30;99.90;;;;;;4150487;28;20045;-74
2021/10/07 05:23:15;;;;;;;16.63;12.20;;;14.30;99.90;;;;;;4150100;28;20044;-74
2021/10/07 05:25:16;;;;;;;17.38;11.90;;;14.30;99.90;;;;;;4153870;28;20048;-74
2021/10/07 05:27:17;;;;;;;16.75;11.75;;;14.30;99.90;;;;;;4151783;28;20904;-74
2021/10/07 05:29:18;;;;;;;17.17;11.98;;;14.30;99.90;;;;;;4152060;28;20113;-73
2021/10/07 05:31:19;;;;;;;17.02;11.98;;;14.30;99.90;;;;;;4149795;28;20053;-74
2021/10/07 05:33:21;;;;;;;18.23;12.30;;;14.30;99.90;;;;;;4149911;28;20049;-74
2021/10/07 05:35:22;;;;;;;;;;;14.30;99.90;;;;;;4156974;28;20561;-75
2021/10/07 05:37:23;;;;;;;15.73;11.32;;;14.30;99.90;;;;;;4151856;28;19994;-74
2021/10/07 05:39:23;;;;;;;17.63;12.07;;;14.30;99.90;;;;;;4137329;28;20073;-75
2021/10/07 05:41:24;;;;;;;16.00;11.60;;;14.30;99.90;;;;;;4152312;28;20041;-74
2021/10/07 05:43:25;;;;;;;19.00;12.00;;;14.30;99.90;;;;;;4150294;28;20053;-74
2021/10/07 05:45:25;;;;;;;16.60;11.90;;;14.20;99.90;;;;;;4153848;28;20135;-75
2021/10/07 05:47:26;;;;;;;19.05;11.43;;;14.30;99.90;;;;;;4151066;28;20034;-75
2021/10/07 05:49:27;;;;;;;15.25;11.05;;;14.20;99.90;;;;;;4151234;28;20117;-75
2021/10/07 05:51:28;;;;;;;19.83;13.00;;;14.20;99.90;;;;;;4151883;28;20505;-75
2021/10/07 05:53:29;;;;;;;19.27;12.80;;;14.20;99.90;;;;;;4154008;28;20366;-75
2021/10/07 05:55:29;;;;;;;17.80;11.38;;;14.20;99.90;;;;;;4153087;28;20116;-75
2021/10/07 05:57:30;;;;;;;16.30;9.98;;;14.10;99.90;;;;;;4153644;28;20041;-75
2021/10/07 05:59:31;;;;;;;18.98;11.77;;;14.10;99.90;;;;;;4152910;28;20037;-75
2021/10/07 06:01:32;;;;;;;16.25;11.40;;;14.10;99.90;;;;;;4153572;28;20094;-75
2021/10/07 06:03:33;;;;;;;16.80;11.13;;;14.10;99.90;;;;;;4155495;28;20037;-75
2021/10/07 06:05:33;;;;;;;15.68;10.45;;;14.10;99.90;;;;;;4153379;28;20045;-75
2021/10/07 06:07:34;;;;;;;15.98;10.65;;;14.10;99.90;;;;;;4152835;28;20045;-75
2021/10/07 06:09:35;;;;;;;15.32;10.30;;;14.10;99.90;;;;;;4153089;28;20032;-75
2021/10/07 06:11:36;;;;;;;13.35;9.80;;;14.00;99.90;;;;;;4152488;28;20041;-75
2021/10/07 06:13:37;;;;;;;14.57;10.45;;;14.00;99.90;;;;;;4152692;28;20044;-75
2021/10/07 06:15:38;;;;;;;15.35;10.38;;;14.00;99.90;;;;;;4152362;28;20441;-75
2021/10/07 06:17:39;;;;;;;14.77;9.38;;;14.00;99.90;;;;;;4153062;28;20449;-75
2021/10/07 06:19:42;;;;;;;15.95;10.32;;;14.00;99.90;;;;;;4135921;28;20270;-75
2021/10/07 06:21:43;;;;;;;12.85;9.23;;;14.00;99.90;;;;;;4147673;28;20123;-75
2021/10/07 06:23:44;;;;;;;14.07;9.85;;;14.00;99.90;;;;;;4178675;28;20040;-75
2021/10/07 06:25:44;;;;;;;14.82;9.73;;;14.00;99.90;;;;;;4172942;28;20048;-75
2021/10/07 06:27:47;;;;;;;18.08;10.02;;;14.00;99.90;;;;;;4175257;28;20033;-75
2021/10/07 06:29:50;;;;;;;;;;;14.00;99.90;;;;;;4171904;28;20064;-75
2021/10/07 06:31:51;;;;;;;13.15;8.85;;;14.00;99.90;;;;;;4172670;28;19952;-75
2021/10/07 06:33:51;;;;;;;14.25;9.27;;;14.00;99.90;;;;;;4171333;28;20587;-75
2021/10/07 06:35:52;;;;;;;15.52;10.25;;;14.00;99.90;;;;;;4178709;28;20114;-75
2021/10/07 06:37:53;;;;;;;12.48;9.10;;;14.00;99.90;;;;;;4171270;28;20071;-75
2021/10/07 06:39:54;;;;;;;15.50;9.93;;;14.00;99.90;;;;;;4171301;28;20404;-75
2021/10/07 06:41:54;;;;;;;12.93;9.35;;;14.00;99.90;;;;;;4170489;28;20040;-75
2021/10/07 06:43:55;;;;;;;14.43;10.18;;;14.00;99.90;;;;;;4171497;28;20043;-75
2021/10/07 06:45:55;;;;;;;14.18;9.30;;;14.10;99.90;;;;;;4177782;28;20408;-75
2021/10/07 06:47:56;;;;;;;13.50;9.43;;;14.10;99.90;;;;;;4173477;28;20091;-75
2021/10/07 06:49:56;;;;;;;14.50;9.68;;;14.10;99.90;;;;;;4175765;28;20115;-75
2021/10/07 06:51:57;;;;;;;12.88;9.35;;;14.10;99.90;;;;;;4169507;28;20302;-75
2021/10/07 06:54:00;;;;;;;13.90;9.60;;;14.10;99.90;;;;;;4175205;28;20037;-75
2021/10/07 06:56:01;;;;;;;12.38;8.85;;;14.10;99.90;;;;;;4175226;28;20029;-75
2021/10/07 06:58:01;;;;;;;15.23;8.85;;;14.20;99.90;;;;;;4173540;28;20551;-75
2021/10/07 07:00:04;;;;;;;13.90;9.30;;;14.20;99.90;;;;;;4171924;28;20031;-75
2021/10/07 07:02:05;;;;;;;12.00;8.75;;;14.10;99.90;;;;;;4172271;28;20049;-75
2021/10/07 07:04:05;;;;;;;13.23;9.15;;;14.20;99.90;;;;;;4170463;28;20438;-75
2021/10/07 07:06:06;;;;;;;13.77;9.55;;;14.20;99.90;;;;;;4171924;28;20037;-75
2021/10/07 07:08:06;;;;;;;12.48;8.50;;;14.10;99.90;;;;;;4173817;28;20024;-75
2021/10/07 07:10:07;;;;;;;13.35;9.55;;;14.10;99.90;;;;;;4170619;28;20021;-75
2021/10/07 07:12:08;;;;;;;11.73;8.15;;;14.10;99.90;;;;;;4151998;28;20929;-75
2021/10/07 07:14:09;;;;;;;13.32;9.02;;;14.10;99.90;;;;;;4156176;28;20028;-75
2021/10/07 07:16:10;;;;;;;13.05;9.38;;;14.20;99.90;;;;;;4166740;28;20694;-75
2021/10/07 07:18:11;;;;;;;13.85;8.60;;;14.20;99.90;;;;;;4148386;28;20026;-74
2021/10/07 07:20:11;;;;;;;13.20;8.75;;;14.10;99.90;;;;;;4153094;28;20107;-74
2021/10/07 07:22:15;;;;;;;14.10;8.80;;;14.20;99.90;;;;;;4152440;28;20025;-75
2021/10/07 07:24:16;;;;;;;14.80;9.45;;;14.20;99.90;;;;;;4151078;28;20044;-75
2021/10/07 07:26:17;;;;;;;14.95;9.65;;;14.20;99.90;;;;;;4153708;28;20398;-75
2021/10/07 07:28:17;;;;;;;13.70;9.57;;;14.20;99.90;;;;;;4154031;28;20117;-75
2021/10/07 07:30:18;;;;;;;13.90;8.98;;;14.20;99.90;;;;;;4151601;28;20026;-75
2021/10/07 07:32:18;;;;;;;17.95;9.32;;;14.30;99.90;;;;;;4152650;28;20034;-75
2021/10/07 07:34:19;;;;;;;14.23;9.35;;;14.30;99.90;;;;;;4154428;28;20465;-75
2021/10/07 07:36:23;;;;;;;16.20;10.15;;;14.30;99.90;;;;;;4151604;28;20512;-75
2021/10/07 07:38:24;;;;;;;16.00;10.85;;;14.40;99.90;;;;;;4153893;28;20025;-74
2021/10/07 07:40:25;;;;;;;19.70;11.48;;;14.50;99.90;;;;;;4153589;28;20045;-75
2021/10/07 07:42:25;;;;;;;16.17;10.55;;;14.70;99.90;;;;;;4151895;28;20538;-75
2021/10/07 07:44:27;;;;;;;15.05;10.57;;;14.80;99.90;;;;;;4153947;28;20029;-75
2021/10/07 07:46:27;;;;;;;14.95;10.15;;;14.80;99.90;;;;;;4152146;28;20103;-75
2021/10/07 07:48:28;;;;;;;17.70;10.40;;;14.90;99.90;;;;;;4153776;28;20687;-75
2021/10/07 07:50:29;;;;;;;16.85;10.65;;;15.00;99.90;;;;;;4153374;28;20029;-75
2021/10/07 07:52:30;;;;;;;15.23;10.30;;;15.20;99.90;;;;;;4151995;28;20056;-75
2021/10/07 07:54:31;;;;;;;15.68;11.13;;;15.40;99.90;;;;;;4152838;28;20034;-75
2021/10/07 07:56:33;;;;;;;17.25;10.98;;;15.40;99.90;;;;;;4153093;28;20056;-75
2021/10/07 07:58:33;;;;;;;14.38;10.95;;;15.50;99.90;;;;;;4153368;28;20084;-75
2021/10/07 08:00:34;;;;;;;18.67;12.35;;;15.70;99.90;;;;;;4151600;28;20384;-75
2021/10/07 08:02:35;;;;;;;16.25;11.55;;;15.80;99.90;;;;;;4153159;28;20124;-76
2021/10/07 08:04:35;;;;;;;17.80;11.77;;;15.90;99.90;;;;;;4154544;28;20191;-75
2021/10/07 08:06:36;;;;;;;15.93;11.40;;;16.00;99.90;;;;;;4154043;28;20029;-76
2021/10/07 08:08:37;;;;;;;16.30;11.88;;;16.00;99.90;;;;;;4153985;28;20521;-76
2021/10/07 08:10:38;;;;;;;18.40;12.88;;;16.20;99.90;;;;;;4152019;28;20037;-76
2021/10/07 08:12:38;;;;;;;19.35;12.95;;;16.30;99.90;;;;;;4153514;28;20690;-76
2021/10/07 08:14:47;;;;;;;18.55;13.35;;;16.50;99.90;;;;;;4136159;28;20116;-74
2021/10/07 08:16:47;;;;;;;17.63;12.48;;;16.60;99.90;;;;;;4152598;28;20042;-74
2021/10/07 08:18:48;;;;;;;17.65;12.40;;;16.60;99.90;;;;;;4154094;28;20052;-74
2021/10/07 08:20:52;;;;;;;17.13;12.77;;;16.80;99.90;;;;;;4153912;28;20120;-74
2021/10/07 08:22:52;;;;;;;20.20;14.02;;;16.80;99.90;;;;;;4153518;28;20413;-74
2021/10/07 08:24:53;;;;;;;22.05;14.45;;;16.80;99.90;;;;;;4153174;28;20047;-74
2021/10/07 08:26:54;;;;;;;22.00;14.52;;;16.70;99.90;;;;;;4151857;28;20037;-74
2021/10/07 08:28:55;;;;;;;18.65;13.82;;;16.60;99.90;;;;;;4152920;28;20658;-74
2021/10/07 08:30:55;;;;;;;22.48;15.13;;;16.50;99.90;;;;;;4151441;28;20129;-74
2021/10/07 08:32:56;;;;;;;24.38;15.70;;;16.40;99.90;;;;;;4152834;28;20033;-74
2021/10/07 08:34:56;;;;;;;20.67;13.95;;;16.30;99.90;;;;;;4152416;28;20030;-74
2021/10/07 08:36:57;;;;;;;24.20;15.13;;;16.30;99.90;;;;;;4151804;28;20029;-74
2021/10/07 08:38:58;;;;;;;22.80;14.98;;;16.20;99.90;;;;;;4152915;28;20133;-74
2021/10/07 08:41:00;;;;;;;25.70;15.70;;;16.10;99.90;;;;;;4152725;28;20041;-74
2021/10/07 08:43:00;;;;;;;21.92;15.82;;;15.90;99.90;;;;;;4152687;28;20391;-74
2021/10/07 08:45:02;;;;;;;24.70;16.63;;;15.90;99.90;;;;;;4152841;28;20037;-74
2021/10/07 08:47:03;;;;;;;22.98;15.40;;;15.80;99.90;;;;;;4149420;28;20093;-74
2021/10/07 08:49:04;;;;;;;22.63;15.35;;;15.90;99.90;;;;;;4151234;28;20044;-74
2021/10/07 08:51:05;;;;;;;25.70;16.53;;;15.90;99.90;;;;;;4150953;28;20501;-74
2021/10/07 08:53:08;;;;;;;28.10;18.77;;;15.80;99.90;;;;;;4150674;28;20042;-73
2021/10/07 08:55:09;;;;;;;30.42;18.63;;;15.70;99.90;;;;;;4154016;28;20041;-73
2021/10/07 08:57:09;;;;;;;26.33;17.65;;;15.50;99.90;;;;;;4153287;28;20041;-73
2021/10/07 08:59:10;;;;;;;25.83;16.85;;;15.40;99.90;;;;;;4152483;28;20760;-73
2021/10/07 09:01:35;;;;;;;25.73;16.70;;;15.40;99.90;;;;;;4152214;28;20045;-73
2021/10/07 09:03:40;;;;;;;26.48;17.95;;;15.30;99.90;;;;;;4169338;28;20033;-73
2021/10/07 09:05:41;;;;;;;25.85;16.08;;;15.20;99.90;;;;;;4171251;28;20390;-73
2021/10/07 09:07:56;;;;;;;26.15;17.50;;;15.20;99.90;;;;;;4172040;28;20037;-73
2021/10/07 09:09:57;;;;;;;33.45;20.45;;;15.30;99.90;;;;;;4175672;28;20029;-74
2021/10/07 09:12:03;;;;;;;28.75;19.50;;;15.10;99.90;;;;;;4182246;28;20040;-73
2021/10/07 09:14:08;;;;;;;30.45;19.33;;;15.10;99.90;;;;;;4172278;28;20463;-73
2021/10/07 09:16:09;;;;;;;37.08;22.48;;;15.10;99.90;;;;;;4177629;28;20666;-73
2021/10/07 09:18:10;;;;;;;37.63;22.00;;;15.10;99.90;;;;;;4174791;28;20033;-73
2021/10/07 09:20:30;;;;;;;32.53;20.55;;;15.10;99.90;;;;;;4175186;28;20040;-73
2021/10/07 09:22:35;;;;;;;37.05;22.88;;;15.00;99.90;;;;;;4170127;28;20045;-73
2021/10/07 09:24:38;;;;;;;38.42;23.60;;;15.10;99.90;;;;;;4154220;28;20105;-73
2021/10/07 09:26:42;;;;;;;35.85;22.13;;;15.10;99.90;;;;;;4172623;28;20032;-73
2021/10/07 09:28:52;;;;;;;41.78;24.27;;;15.10;99.90;;;;;;4170394;28;20025;-73
2021/10/07 09:30:57;;;;;;;41.65;24.63;;;15.10;99.90;;;;;;4169199;28;20037;-73
2021/10/07 09:33:01;;;;;;;50.85;27.38;;;15.10;99.90;;;;;;4171976;28;20078;-73
2021/10/07 09:35:08;;;;;;;47.55;25.80;;;15.20;99.90;;;;;;4169647;28;20029;-73
2021/10/07 09:37:20;;;;;;;36.72;20.85;;;15.10;99.90;;;;;;4172133;28;20037;-73
2021/10/07 09:39:21;;;;;;;56.58;28.73;;;15.20;99.90;;;;;;4171580;28;20479;-73
2021/10/07 09:41:23;;;;;;;57.75;30.95;;;15.20;99.90;;;;;;4171897;28;20041;-74
2021/10/07 09:43:24;;;;;;;51.22;26.75;;;15.20;99.90;;;;;;4172685;28;20033;-73
2021/10/07 09:45:34;;;;;;;49.00;25.40;;;15.20;99.90;;;;;;4169501;28;20075;-73
2021/10/07 09:47:44;;;;;;;48.35;25.35;;;15.20;99.90;;;;;;4168362;28;20118;-73
2021/10/07 09:49:44;;;;;;;46.28;23.73;;;15.20;99.90;;;;;;4170135;28;20052;-73
2021/10/07 09:51:51;;;;;;;53.28;27.23;;;15.20;99.90;;;;;;4171821;28;20044;-73
2021/10/07 09:53:52;;;;;;;49.33;25.20;;;15.00;99.90;;;;;;4171610;28;20048;-73
2021/10/07 09:55:52;;;;;;;44.30;22.83;;;15.10;99.90;;;;;;4170616;28;20131;-73
2021/10/07 09:57:57;;;;;;;47.90;24.85;;;15.00;99.90;;;;;;4171092;28;20045;-73
2021/10/07 10:00:01;;;;;;;50.88;25.63;;;15.10;99.90;;;;;;4169497;28;20036;-72
2021/10/07 10:02:02;;;;;;;55.60;26.73;;;15.10;99.90;;;;;;4172444;28;20037;-73
2021/10/07 10:04:03;;;;;;;47.13;23.75;;;15.10;99.90;;;;;;4169259;28;20036;-73
2021/10/07 10:06:04;;;;;;;55.60;26.92;;;15.10;99.90;;;;;;4170190;28;20037;-73
2021/10/07 10:08:07;;;;;;;49.53;24.30;;;15.20;99.90;;;;;;4171331;28;20033;-73
2021/10/07 10:10:09;;;;;;;52.53;25.48;;;15.30;99.90;;;;;;4170783;28;20044;-73
2021/10/07 10:12:09;;;;;;;51.30;25.17;;;15.30;99.90;;;;;;4172476;28;20033;-73
2021/10/07 10:14:11;;;;;;;56.88;27.20;;;15.40;99.90;;;;;;4170536;28;20213;-73
2021/10/07 10:16:12;;;;;;;51.70;26.90;;;15.40;99.90;;;;;;4171815;28;20036;-73
2021/10/07 10:18:16;;;;;;;54.30;27.77;;;15.40;99.90;;;;;;4168485;28;20052;-73
2021/10/07 10:20:17;;;;;;;62.42;29.35;;;15.40;99.90;;;;;;4169228;28;20580;-73
2021/10/07 10:22:21;;;;;;;62.35;30.48;;;15.40;99.90;;;;;;4169575;28;20140;-72